Time;durP1;ratioP1;P1;durP2;ratioP2;P2;SDS_P1;SDS_P2;PMS_P1;PMS_P2;Temp;Humidity;BMP_temperature;BMP_pressure;BME280_temperature;BME280_humidity;BME280_pressure;Samples;Min_cycle;Max_cycle;Signal;HPM_P1;HPM_P2
2022/11/05 05:15:27;;;;;;;1.87;1.23;;;;;;;8.67;100.00;98914.53;6039599;23;20216;-81
2022/11/05 05:17:53;;;;;;;1.50;1.30;;;;;;;8.75;100.00;98895.53;6029712;23;20574;-81
2022/11/05 05:23:06;;;;;;;3.47;1.30;;;;;;;8.86;100.00;98903.81;6055020;23;20157;-82
2022/11/05 05:25:32;;;;;;;2.47;1.20;;;;;;;8.78;100.00;98923.63;6053353;23;20185;-81
2022/11/05 05:27:59;;;;;;;2.57;1.30;;;;;;;8.84;100.00;98928.06;6026675;23;20184;-81
2022/11/05 05:30:26;;;;;;;1.60;1.50;;;;;;;8.86;100.00;98933.19;6051574;23;20178;-81
2022/11/05 05:32:52;;;;;;;1.43;1.30;;;;;;;8.82;100.00;98927.47;6027011;23;20256;-81
2022/11/05 05:35:19;;;;;;;2.30;1.30;;;;;;;8.82;100.00;98932.81;6053303;23;20233;-81
2022/11/05 05:37:46;;;;;;;2.33;1.10;;;;;;;8.90;100.00;98937.88;6005633;23;20174;-81
2022/11/05 05:40:13;;;;;;;2.77;1.23;;;;;;;8.83;100.00;98934.44;6030134;23;20177;-81
2022/11/05 05:42:40;;;;;;;2.33;1.37;;;;;;;8.78;100.00;98948.47;6030308;23;20189;-81
2022/11/05 05:45:10;;;;;;;4.00;1.53;;;;;;;8.77;100.00;98949.50;6054135;23;20193;-81
2022/11/05 05:47:37;;;;;;;1.80;1.37;;;;;;;8.82;100.00;98954.19;6027815;23;20162;-81
2022/11/05 05:50:04;;;;;;;1.77;1.20;;;;;;;8.78;100.00;98956.50;6003645;23;20189;-81
2022/11/05 05:52:31;;;;;;;1.63;1.20;;;;;;;8.90;100.00;98967.25;6003380;23;20261;-80
2022/11/05 05:54:57;;;;;;;1.30;1.20;;;;;;;8.88;100.00;98963.97;6002588;23;20184;-81
2022/11/05 05:57:24;;;;;;;3.37;1.40;;;;;;;8.70;100.00;98974.69;6050892;23;20197;-81
2022/11/05 05:59:51;;;;;;;1.60;1.30;;;;;;;8.83;100.00;98975.34;6052134;23;20167;-81
2022/11/05 06:02:17;;;;;;;2.10;1.50;;;;;;;8.68;100.00;98969.53;6052530;23;20165;-81
2022/11/05 06:04:44;;;;;;;3.53;1.40;;;;;;;8.87;100.00;98966.88;6052016;23;20188;-81
2022/11/05 06:07:11;;;;;;;2.40;1.60;;;;;;;8.90;100.00;98966.44;6026697;23;20169;-81
2022/11/05 06:09:38;;;;;;;2.20;1.50;;;;;;;8.90;100.00;98975.25;6050478;23;20172;-81
2022/11/05 06:12:05;;;;;;;3.13;1.43;;;;;;;8.88;100.00;98981.84;6001550;23;20215;-81
2022/11/05 06:14:31;;;;;;;1.93;1.70;;;;;;;8.77;100.00;98975.44;6051308;23;20683;-81
2022/11/05 06:16:58;;;;;;;2.80;1.50;;;;;;;8.89;100.00;98980.81;6027772;23;20228;-82
2022/11/05 06:19:25;;;;;;;2.40;1.50;;;;;;;8.99;100.00;98989.13;6027059;23;20177;-81
2022/11/05 06:21:52;;;;;;;2.63;1.60;;;;;;;8.91;100.00;98990.25;6029378;23;20623;-81
2022/11/05 06:24:19;;;;;;;2.90;1.80;;;;;;;8.78;100.00;99017.09;6054067;23;20162;-81
2022/11/05 06:26:45;;;;;;;2.00;1.50;;;;;;;8.87;100.00;99018.44;6052611;23;20222;-81
2022/11/05 06:29:12;;;;;;;2.67;1.77;;;;;;;8.99;100.00;99005.97;6027106;23;20173;-82
2022/11/05 06:31:39;;;;;;;2.03;1.73;;;;;;;8.84;100.00;99016.22;6052199;23;20170;-81
2022/11/05 06:34:06;;;;;;;3.30;1.80;;;;;;;9.02;100.00;99023.41;6051893;23;20196;-81
2022/11/05 06:36:32;;;;;;;3.47;2.10;;;;;;;9.14;100.00;99035.81;6055431;23;20193;-82
2022/11/05 06:38:59;;;;;;;3.07;2.10;;;;;;;9.09;100.00;99037.50;6031232;23;20183;-81
2022/11/05 06:41:26;;;;;;;3.07;1.90;;;;;;;9.24;100.00;99043.25;6032107;23;20173;-82
2022/11/05 06:43:53;;;;;;;2.87;1.90;;;;;;;9.14;100.00;99049.16;6030733;23;20173;-81
2022/11/05 06:46:20;;;;;;;2.10;1.90;;;;;;;9.19;100.00;99041.28;6029455;23;20194;-81
2022/11/05 06:48:47;;;;;;;1.60;1.50;;;;;;;9.28;100.00;99034.56;6030222;23;20162;-82
2022/11/05 06:51:14;;;;;;;2.50;1.93;;;;;;;9.27;100.00;99038.31;6054798;23;20197;-81
2022/11/05 06:53:41;;;;;;;3.10;2.30;;;;;;;9.28;100.00;99026.56;6057920;23;20166;-81
2022/11/05 06:56:08;;;;;;;2.40;1.73;;;;;;;9.34;100.00;99034.72;6028838;23;20173;-81
2022/11/05 06:58:35;;;;;;;2.57;2.13;;;;;;;9.39;100.00;99030.31;6053201;23;20170;-81
2022/11/05 07:01:07;;;;;;;2.20;1.90;;;;;;;9.36;100.00;99029.97;6028502;23;20185;-81
2022/11/05 07:03:38;;;;;;;2.83;1.97;;;;;;;9.43;100.00;99039.53;6054091;23;20158;-82
2022/11/05 07:06:06;;;;;;;3.57;2.10;;;;;;;9.38;100.00;99047.41;6027589;23;20261;-81
2022/11/05 07:08:34;;;;;;;2.33;1.87;;;;;;;9.63;100.00;99052.63;6028252;23;20174;-82
2022/11/05 07:11:01;;;;;;;2.30;1.83;;;;;;;9.54;100.00;99059.34;6028259;23;20201;-81
2022/11/05 07:13:27;;;;;;;2.80;2.30;;;;;;;9.57;100.00;99061.56;6029260;23;20277;-81
2022/11/05 07:15:55;;;;;;;2.40;1.83;;;;;;;9.57;100.00;99054.34;6003309;23;20252;-82
2022/11/05 07:18:22;;;;;;;2.07;1.80;;;;;;;9.72;100.00;99062.78;6004716;23;20192;-81
2022/11/05 07:20:49;;;;;;;3.70;2.10;;;;;;;9.63;100.00;99058.78;6028119;23;20608;-81
2022/11/05 07:23:16;;;;;;;3.07;2.40;;;;;;;9.72;100.00;99060.09;6049978;23;20178;-82
2022/11/05 07:26:05;;;;;;;2.83;2.10;;;;;;;9.81;100.00;99055.25;6051572;23;20196;-82
2022/11/05 07:28:45;;;;;;;2.70;2.10;;;;;;;9.82;100.00;99056.06;6065715;23;20162;-83
2022/11/05 09:09:12;;;;;;;4.20;2.00;;;;;;;12.02;100.00;99134.72;6043675;23;20305;-82
2022/11/05 09:11:39;;;;;;;5.20;1.97;;;;;;;12.14;100.00;99152.38;6048631;23;20161;-82
2022/11/05 09:14:26;;;;;;;2.23;1.60;;;;;;;12.01;100.00;99133.06;6047399;23;20181;-81
2022/11/05 09:16:52;;;;;;;2.13;1.63;;;;;;;12.11;100.00;99141.31;6023712;23;20184;-81
2022/11/05 09:19:19;;;;;;;3.00;1.80;;;;;;;12.11;100.00;99147.50;6050375;23;20166;-82
2022/11/05 09:21:46;;;;;;;4.80;1.90;;;;;;;11.94;100.00;99133.25;6055683;23;20161;-81
2022/11/05 09:24:13;;;;;;;3.37;1.97;;;;;;;11.98;100.00;99131.69;6006565;23;20558;-82
2022/11/05 09:26:40;;;;;;;3.17;1.97;;;;;;;12.05;100.00;99137.72;6029992;23;20635;-82
2022/11/05 09:29:07;;;;;;;2.50;1.77;;;;;;;12.00;100.00;99121.50;6056424;23;20186;-83
2022/11/05 09:31:40;;;;;;;2.20;2.00;;;;;;;12.16;100.00;99122.63;6033236;23;20187;-82
2022/11/05 09:34:08;;;;;;;2.03;1.83;;;;;;;12.36;100.00;99129.13;6059243;23;20162;-82
2022/11/05 09:36:37;;;;;;;2.67;2.00;;;;;;;12.62;100.00;99121.50;6014280;23;20150;-83
2022/11/05 09:39:06;;;;;;;3.43;2.13;;;;;;;12.62;100.00;99116.94;6036981;23;20165;-82
2022/11/05 09:41:38;;;;;;;2.30;2.10;;;;;;;12.52;100.00;99110.59;6033648;23;20237;-82
2022/11/05 09:44:14;;;;;;;3.23;2.10;;;;;;;12.62;100.00;99110.75;6057473;23;20174;-82
2022/11/05 09:46:50;;;;;;;3.17;2.00;;;;;;;12.41;100.00;99106.13;6032593;23;20188;-82
2022/11/05 09:49:27;;;;;;;3.47;2.37;;;;;;;12.31;100.00;99125.56;6056786;23;20153;-82
2022/11/05 09:51:56;;;;;;;3.13;2.27;;;;;;;12.26;100.00;99122.78;6056295;23;20352;-82
2022/11/05 09:54:27;;;;;;;3.43;2.40;;;;;;;12.46;100.00;99125.00;6033576;23;20166;-83
2022/11/05 09:56:54;;;;;;;2.43;2.20;;;;;;;12.48;100.00;99122.88;6013199;23;20158;-83
2022/11/05 09:59:41;;;;;;;2.80;2.20;;;;;;;12.77;100.00;99125.25;6062469;23;20173;-83
2022/11/05 10:02:19;;;;;;;3.23;2.10;;;;;;;12.60;100.00;99134.34;6038714;23;20142;-83
2022/11/05 10:04:50;;;;;;;3.33;2.30;;;;;;;12.82;100.00;99142.50;6037046;23;20180;-83
2022/11/05 10:07:21;;;;;;;2.50;2.27;;;;;;;12.66;100.00;99131.50;6035379;23;20161;-82
2022/11/05 10:09:54;;;;;;;2.50;2.30;;;;;;;12.69;100.00;99149.81;5980783;23;20167;-82
2022/11/05 10:12:30;;;;;;;2.73;2.10;;;;;;;12.70;100.00;99156.84;5981639;23;20174;-82
2022/11/05 10:15:06;;;;;;;2.57;2.20;;;;;;;12.80;100.00;99159.69;6004531;23;20219;-82
2022/11/05 10:17:35;;;;;;;3.53;2.43;;;;;;;12.75;100.00;99158.78;6030877;23;20162;-83
2022/11/05 10:20:06;;;;;;;2.97;2.47;;;;;;;12.69;100.00;99178.59;6029214;23;20170;-82
2022/11/05 10:22:33;;;;;;;3.63;2.60;;;;;;;12.43;100.00;99160.41;6027253;23;20162;-82
2022/11/05 18:28:55;;;;;;;4.07;3.60;;;;;;;9.96;100.00;99520.47;6047772;23;20300;-80
2022/11/05 18:31:22;;;;;;;4.47;3.50;;;;;;;9.84;100.00;99528.41;6044195;23;20158;-79
2022/11/05 18:33:49;;;;;;;4.50;3.73;;;;;;;9.75;100.00;99531.56;6045282;23;20195;-80
2022/11/05 18:36:21;;;;;;;4.67;4.20;;;;;;;9.66;100.00;99541.66;6046112;23;20199;-79
2022/11/05 18:38:49;;;;;;;4.77;4.03;;;;;;;9.83;100.00;99540.13;6022422;23;20150;-82
2022/11/05 18:41:15;;;;;;;4.03;3.50;;;;;;;9.93;100.00;99551.19;6021897;23;20707;-82
2022/11/05 18:43:42;;;;;;;5.57;3.83;;;;;;;9.92;100.00;99546.03;6021696;23;20505;-82
2022/11/05 18:46:10;;;;;;;6.03;4.70;;;;;;;9.95;100.00;99550.94;6021759;23;20190;-82
2022/11/05 18:48:57;;;;;;;5.00;4.23;;;;;;;9.86;100.00;99552.25;6044909;23;20154;-82
2022/11/05 18:51:24;;;;;;;4.43;4.03;;;;;;;9.90;100.00;99548.09;6044602;23;20168;-82
2022/11/05 18:53:54;;;;;;;4.30;3.90;;;;;;;9.96;100.00;99552.59;6043610;23;20627;-82
2022/11/05 18:56:22;;;;;;;4.60;3.63;;;;;;;9.96;100.00;99539.22;6043323;23;20385;-82
2022/11/05 18:58:48;;;;;;;4.27;3.87;;;;;;;9.99;100.00;99546.78;6021061;23;20508;-82
2022/11/05 19:01:18;;;;;;;4.80;3.90;;;;;;;9.87;100.00;99552.03;6043921;23;20218;-83
2022/11/05 19:03:45;;;;;;;5.67;3.67;;;;;;;10.00;100.00;99553.78;6045493;23;20166;-82
2022/11/05 19:06:13;;;;;;;4.50;4.10;;;;;;;9.94;100.00;99551.97;6019878;23;20260;-82
2022/11/05 19:08:40;;;;;;;5.30;3.80;;;;;;;9.84;100.00;99557.84;6045136;23;20165;-83
2022/11/05 19:11:13;;;;;;;4.97;3.80;;;;;;;9.93;100.00;99550.34;6045071;23;20634;-82
2022/11/05 19:13:40;;;;;;;4.13;3.67;;;;;;;10.06;100.00;99566.31;6044718;23;20158;-82
2022/11/05 19:16:09;;;;;;;5.03;3.87;;;;;;;9.85;100.00;99558.63;6045931;23;20514;-82
2022/11/05 19:18:36;;;;;;;5.57;3.93;;;;;;;10.00;100.00;99561.81;6021712;23;20166;-83
2022/11/05 19:21:10;;;;;;;5.03;3.77;;;;;;;9.95;100.00;99562.47;6045402;23;20193;-82
2022/11/05 19:23:38;;;;;;;4.20;3.80;;;;;;;10.01;100.00;99572.31;6020751;23;20176;-82
2022/11/05 19:26:10;;;;;;;4.50;3.97;;;;;;;10.06;100.00;99572.50;6020314;23;20197;-82
2022/11/05 19:28:37;;;;;;;3.90;3.50;;;;;;;10.07;100.00;99584.03;6014762;23;20202;-82
2022/11/05 19:31:04;;;;;;;4.20;3.53;;;;;;;9.87;100.00;99577.97;6016978;23;20166;-82
2022/11/05 19:33:30;;;;;;;4.23;3.43;;;;;;;9.94;100.00;99573.38;6017148;23;20261;-82
2022/11/05 19:35:58;;;;;;;3.80;3.40;;;;;;;9.89;100.00;99578.59;6019817;23;20170;-83
2022/11/05 19:38:25;;;;;;;5.53;3.30;;;;;;;10.07;100.00;99592.06;6021638;23;20167;-82
2022/11/05 19:40:51;;;;;;;5.43;3.23;;;;;;;9.95;100.00;99591.91;6022370;23;20169;-82
2022/11/05 19:43:18;;;;;;;4.17;3.60;;;;;;;9.81;100.00;99592.22;5997174;23;20199;-82
2022/11/05 19:45:47;;;;;;;3.70;3.40;;;;;;;9.68;100.00;99604.63;6021340;23;20211;-83
2022/11/05 19:48:13;;;;;;;6.67;4.20;;;;;;;9.67;100.00;99592.28;6018440;23;20233;-82
2022/11/05 19:50:45;;;;;;;4.30;3.57;;;;;;;9.55;100.00;99601.22;5995468;23;20237;-82
2022/11/05 19:53:11;;;;;;;4.27;3.10;;;;;;;9.59;100.00;99603.25;6017855;23;20601;-82
2022/11/05 19:55:39;;;;;;;4.50;3.53;;;;;;;9.50;100.00;99603.72;6019032;23;20170;-81
2022/11/05 19:58:06;;;;;;;5.47;4.20;;;;;;;9.46;100.00;99597.97;6019528;23;20172;-82
2022/11/05 20:00:34;;;;;;;6.27;3.70;;;;;;;9.36;100.00;99600.28;6018803;23;20218;-82
2022/11/05 20:03:01;;;;;;;3.57;3.27;;;;;;;9.39;100.00;99613.22;6018416;23;20580;-82
2022/11/05 20:05:27;;;;;;;4.70;3.60;;;;;;;9.24;100.00;99601.94;6018047;23;20172;-81
2022/11/05 20:29:15;;;;;;;4.30;3.60;;;;;;;8.84;100.00;99633.31;6046853;23;20220;-81
2022/11/05 20:31:42;;;;;;;5.47;3.63;;;;;;;8.90;100.00;99637.84;6001976;23;20167;-80
2022/11/05 20:34:09;;;;;;;5.17;4.00;;;;;;;8.77;100.00;99636.00;5978982;23;20221;-81
2022/11/05 20:36:36;;;;;;;5.37;3.97;;;;;;;8.82;100.00;99644.19;6026717;23;20490;-82
2022/11/05 20:39:09;;;;;;;4.30;3.60;;;;;;;8.79;100.00;99628.59;6031637;23;20193;-82
2022/11/05 20:41:38;;;;;;;4.00;3.23;;;;;;;8.80;100.00;99635.59;6011753;23;20160;-82
2022/11/05 20:44:06;;;;;;;4.90;3.73;;;;;;;8.79;100.00;99630.44;6008288;23;20173;-82
2022/11/05 20:46:33;;;;;;;4.63;3.90;;;;;;;8.82;100.00;99641.53;6052719;23;20233;-83
2022/11/05 20:49:00;;;;;;;4.30;3.33;;;;;;;8.65;100.00;99632.31;6029621;23;20161;-81
2022/11/05 20:51:27;;;;;;;4.47;3.67;;;;;;;8.75;100.00;99635.41;6054447;23;20166;-82
2022/11/05 20:53:55;;;;;;;6.53;3.57;;;;;;;8.82;100.00;99638.84;6003958;23;20184;-81
2022/11/05 20:56:28;;;;;;;5.20;3.60;;;;;;;8.74;100.00;99633.75;6053619;23;20162;-81
2022/11/05 20:58:57;;;;;;;8.73;3.80;;;;;;;8.69;100.00;99638.88;6022650;23;20599;-80
2022/11/05 21:01:25;;;;;;;5.03;3.80;;;;;;;8.69;100.00;99643.41;6045492;23;20201;-81
2022/11/05 21:03:52;;;;;;;6.53;3.90;;;;;;;8.57;100.00;99648.56;6016518;23;20165;-80
2022/11/05 21:06:19;;;;;;;4.87;3.67;;;;;;;8.47;100.00;99650.00;6041645;23;20702;-80
2022/11/05 21:08:46;;;;;;;5.60;3.80;;;;;;;8.59;100.00;99641.16;6041289;23;20241;-80
2022/11/05 21:11:13;;;;;;;4.03;3.60;;;;;;;8.46;100.00;99648.34;6016023;23;20192;-80
2022/11/05 21:13:40;;;;;;;5.57;3.47;;;;;;;8.63;100.00;99645.03;6042688;23;20166;-81
2022/11/05 21:16:08;;;;;;;4.30;3.60;;;;;;;8.54;100.00;99658.84;6049508;23;20221;-82
2022/11/05 21:18:43;;;;;;;5.53;3.40;;;;;;;8.40;100.00;99664.16;6030240;23;20154;-81
2022/11/05 21:21:16;;;;;;;3.73;3.30;;;;;;;8.50;100.00;99646.91;6041900;23;20555;-80
2022/11/05 21:23:42;;;;;;;5.63;3.70;;;;;;;8.47;100.00;99655.31;6040647;23;20160;-80
2022/11/05 21:26:12;;;;;;;5.43;3.80;;;;;;;8.38;100.00;99655.53;6040648;23;20184;-80
2022/11/05 21:28:39;;;;;;;6.03;3.90;;;;;;;8.37;100.00;99666.41;6040900;23;20197;-80
2022/11/05 21:31:06;;;;;;;6.83;4.13;;;;;;;8.35;100.00;99660.47;6016563;23;20160;-80
2022/11/05 21:33:33;;;;;;;5.27;3.67;;;;;;;8.34;100.00;99651.63;6041241;23;20166;-80
2022/11/05 21:36:08;;;;;;;4.63;3.50;;;;;;;8.38;100.00;99663.56;6041524;23;20236;-80
2022/11/05 21:38:35;;;;;;;5.00;3.53;;;;;;;8.32;100.00;99667.03;6041960;23;20162;-80
2022/11/05 21:41:03;;;;;;;5.50;3.90;;;;;;;8.37;100.00;99672.56;6017831;23;20158;-81
2022/11/05 21:43:30;;;;;;;6.07;3.80;;;;;;;8.11;100.00;99672.53;6047606;23;20162;-81
2022/11/05 21:46:00;;;;;;;4.60;3.47;;;;;;;8.26;100.00;99669.66;6044893;23;20614;-80
2022/11/05 21:48:26;;;;;;;4.73;3.60;;;;;;;8.35;100.00;99671.94;6041096;23;20154;-80
2022/11/05 22:02:00;;;;;;;5.63;3.70;;;;;;;8.14;100.00;99666.78;6024880;23;20204;-82
2022/11/05 22:04:35;;;;;;;5.07;3.70;;;;;;;8.10;100.00;99664.72;6050297;23;20168;-82
2022/11/05 22:07:02;;;;;;;4.40;3.90;;;;;;;8.22;100.00;99671.91;6025807;23;20201;-82
2022/11/05 22:09:29;;;;;;;4.10;3.70;;;;;;;8.11;100.00;99666.34;6047058;23;20188;-81
2022/11/05 22:11:56;;;;;;;5.77;3.80;;;;;;;8.01;100.00;99666.75;6040741;23;20715;-80
2022/11/05 22:14:27;;;;;;;5.10;3.70;;;;;;;8.09;100.00;99673.72;6051481;23;20165;-82
2022/11/05 22:16:58;;;;;;;5.00;3.40;;;;;;;8.28;100.00;99665.75;6005096;23;20181;-81
2022/11/05 22:19:25;;;;;;;7.20;3.80;;;;;;;8.12;100.00;99671.47;6025021;23;20158;-81
2022/11/05 22:21:53;;;;;;;6.03;4.10;;;;;;;8.04;100.00;99674.34;6026821;23;20162;-81
2022/11/05 22:24:21;;;;;;;5.40;3.60;;;;;;;8.03;100.00;99669.19;6002687;23;20169;-82
2022/11/05 22:26:48;;;;;;;4.33;3.60;;;;;;;7.87;100.00;99665.06;6050027;23;20189;-82
2022/11/05 22:29:15;;;;;;;5.83;3.93;;;;;;;7.89;100.00;99665.69;6020436;23;20241;-82
2022/11/05 22:31:42;;;;;;;5.47;3.77;;;;;;;7.89;100.00;99663.84;6022854;23;20249;-81
2022/11/05 22:34:09;;;;;;;5.20;3.40;;;;;;;7.88;100.00;99664.88;6030741;23;20166;-83
2022/11/05 22:36:53;;;;;;;6.70;3.83;;;;;;;7.85;100.00;99672.44;5998490;23;20174;-83
